Time;durP1;ratioP1;P1;durP2;ratioP2;P2;SDS_P1;SDS_P2;PMS_P1;PMS_P2;Temp;Humidity;BMP_temperature;BMP_pressure;BME280_temperature;BME280_humidity;BME280_pressure;Samples;Min_cycle;Max_cycle;Signal;HPM_P1;HPM_P2
2021/09/28 00:01:13;;;;;;;35.08;23.57;;;;;;;12.53;83.71;100517.46;2057483;84;21026;-77
2021/09/28 00:04:15;;;;;;;30.17;20.27;;;;;;;12.56;83.69;100521.11;2067249;84;20978;-77
2021/09/28 00:07:17;;;;;;;31.10;21.50;;;;;;;12.61;84.04;100525.08;2060553;84;21049;-78
2021/09/28 00:10:18;;;;;;;33.58;20.55;;;;;;;12.66;84.18;100526.23;2057377;84;21540;-78
2021/09/28 00:13:20;;;;;;;30.62;21.33;;;;;;;12.72;84.25;100528.20;2059934;84;21065;-77
2021/09/28 00:16:21;;;;;;;31.50;21.68;;;;;;;12.77;84.28;100525.05;2066283;84;21591;-78
2021/09/28 00:19:23;;;;;;;30.52;22.05;;;;;;;12.81;84.30;100527.71;2058262;84;20978;-78
2021/09/28 00:22:24;;;;;;;29.90;20.72;;;;;;;12.85;84.21;100531.68;2069098;84;21058;-78
2021/09/28 00:25:26;;;;;;;30.02;20.60;;;;;;;12.89;84.25;100526.33;2058658;84;21037;-77
2021/09/28 00:28:28;;;;;;;31.80;21.48;;;;;;;12.94;84.23;100530.64;2060454;84;21024;-77
2021/09/28 00:31:29;;;;;;;27.65;21.07;;;;;;;12.98;84.20;100525.31;2065600;84;21683;-76
2021/09/28 00:34:31;;;;;;;29.65;20.32;;;;;;;12.96;84.21;100529.97;2061832;84;21015;-77
2021/09/28 00:37:32;;;;;;;26.52;19.73;;;;;;;12.95;84.27;100525.66;2060536;84;21457;-78
2021/09/28 00:40:34;;;;;;;29.07;22.48;;;;;;;12.97;84.41;100532.95;2062675;84;21511;-77
2021/09/28 00:43:48;;;;;;;29.55;20.97;;;;;;;12.99;84.46;100532.30;2061208;84;21009;-75
2021/09/28 00:46:49;;;;;;;27.27;20.35;;;;;;;13.03;84.42;100527.95;2057966;84;21028;-76
2021/09/28 00:49:51;;;;;;;29.05;20.23;;;;;;;13.06;84.38;100522.27;2058905;84;21024;-77
2021/09/28 00:52:52;;;;;;;29.90;19.65;;;;;;;13.05;84.41;100517.96;2057042;84;22322;-78
2021/09/28 00:55:54;;;;;;;27.40;19.82;;;;;;;13.04;84.48;100521.64;2058911;84;20942;-76
2021/09/28 00:59:00;;;;;;;29.48;19.82;;;;;;;13.04;84.49;100516.31;2064132;84;21050;-78
2021/09/28 01:02:00;;;;;;;23.77;18.10;;;;;;;13.03;84.60;100514.63;2055893;84;21534;-78
2021/09/28 01:05:03;;;;;;;24.85;17.98;;;;;;;13.04;84.42;100520.30;2058456;84;21013;-77
2021/09/28 01:08:05;;;;;;;31.07;19.82;;;;;;;13.03;84.28;100514.63;2057131;84;21037;-79
2021/09/28 01:11:06;;;;;;;26.62;18.17;;;;;;;12.98;84.26;100504.01;2066498;84;21464;-78
2021/09/28 01:14:08;;;;;;;26.05;18.85;;;;;;;12.92;84.26;100500.70;2065161;84;20974;-78
2021/09/28 01:17:13;;;;;;;25.43;18.73;;;;;;;12.91;84.37;100504.86;2062077;84;20986;-77
2021/09/28 01:20:15;;;;;;;28.57;18.65;;;;;;;12.89;84.39;100507.68;2054691;84;21079;-77
2021/09/28 01:23:16;;;;;;;26.00;19.17;;;;;;;12.88;84.19;100511.86;2061405;84;21447;-78
2021/09/28 01:26:24;;;;;;;25.43;16.97;;;;;;;12.84;84.18;100511.39;2066498;84;21033;-78
2021/09/28 01:29:23;;;;;;;26.00;18.20;;;;;;;12.81;83.77;100507.73;2056614;84;21025;-77
2021/09/28 01:32:24;;;;;;;26.17;16.67;;;;;;;12.77;83.71;100508.56;2063973;84;21037;-78
2021/09/28 01:35:26;;;;;;;25.65;17.02;;;;;;;12.75;83.80;100510.59;2059734;84;21537;-78
2021/09/28 01:38:28;;;;;;;27.75;17.87;;;;;;;12.73;83.59;100509.09;2057235;84;21037;-78
2021/09/28 01:41:29;;;;;;;21.90;16.45;;;;;;;12.63;83.30;100502.62;2065984;84;21036;-78
2021/09/28 01:44:34;;;;;;;24.75;17.55;;;;;;;12.49;83.14;100498.82;2078450;84;21046;-78
2021/09/28 01:47:34;;;;;;;29.65;18.70;;;;;;;12.41;83.44;100500.67;2087746;84;21046;-78
2021/09/28 01:50:36;;;;;;;27.85;19.52;;;;;;;12.36;83.90;100499.87;2090472;84;21057;-78
2021/09/28 01:53:38;;;;;;;28.67;19.07;;;;;;;12.37;84.13;100501.52;2084678;84;21050;-78
2021/09/28 01:56:39;;;;;;;28.62;19.00;;;;;;;12.33;84.42;100496.19;2087872;84;20956;-77
2021/09/28 01:59:41;;;;;;;27.60;18.05;;;;;;;12.28;84.28;100499.38;2082409;84;21431;-78
2021/09/28 02:02:42;;;;;;;28.07;18.42;;;;;;;12.28;84.27;100498.55;2090002;84;21043;-78
2021/09/28 02:05:44;;;;;;;29.90;18.62;;;;;;;12.28;84.35;100497.22;2088644;84;21020;-78
2021/09/28 02:08:45;;;;;;;27.02;17.15;;;;;;;12.25;84.49;100499.71;2082320;84;21479;-78
2021/09/28 02:11:47;;;;;;;28.35;17.87;;;;;;;12.23;84.49;100494.22;2083387;84;21659;-78
2021/09/28 02:14:48;;;;;;;24.00;17.57;;;;;;;12.24;84.37;100499.87;2081934;84;20973;-77
2021/09/28 02:17:50;;;;;;;26.90;17.40;;;;;;;12.23;84.40;100504.36;2083709;84;20992;-77
2021/09/28 02:20:52;;;;;;;25.05;17.15;;;;;;;12.22;84.11;100502.71;2088533;84;21034;-78
2021/09/28 02:23:53;;;;;;;26.45;18.05;;;;;;;12.21;84.01;100505.52;2083099;84;21041;-78
2021/09/28 02:26:54;;;;;;;24.25;16.25;;;;;;;12.19;84.00;100508.37;2086484;84;21030;-77
2021/09/28 02:29:57;;;;;;;24.02;17.30;;;;;;;12.18;84.03;100512.52;2088320;84;21545;-78
2021/09/28 02:32:58;;;;;;;25.20;17.27;;;;;;;12.10;83.88;100503.53;2084439;84;21022;-78
2021/09/28 02:36:00;;;;;;;24.20;16.77;;;;;;;11.98;83.84;100495.56;2082596;84;21015;-79
2021/09/28 02:39:01;;;;;;;23.80;16.37;;;;;;;11.91;83.67;100498.57;2093864;84;21090;-78
2021/09/28 02:42:04;;;;;;;28.70;18.45;;;;;;;11.89;83.79;100504.55;2064663;83;21111;-79
2021/09/28 02:45:07;;;;;;;27.02;18.70;;;;;;;11.86;84.11;100503.05;2108145;83;21005;-77
2021/09/28 02:48:08;;;;;;;22.20;16.45;;;;;;;11.82;84.32;100508.31;2107335;83;20990;-79
2021/09/28 02:51:09;;;;;;;26.87;18.40;;;;;;;11.83;84.43;100514.48;2101803;83;21469;-79
2021/09/28 02:54:11;;;;;;;25.80;16.65;;;;;;;11.82;84.35;100516.80;2099499;83;20976;-78
2021/09/28 02:57:12;;;;;;;20.65;14.18;;;;;;;11.82;84.26;100516.80;2109396;83;21053;-78
2021/09/28 03:00:14;;;;;;;21.68;15.78;;;;;;;11.75;83.59;100509.98;2106506;83;20975;-78
2021/09/28 03:03:16;;;;;;;20.32;14.00;;;;;;;11.68;83.80;100508.97;2102604;83;21477;-78
2021/09/28 03:06:17;;;;;;;20.15;12.95;;;;;;;11.61;83.56;100515.95;2105216;83;21020;-78
2021/09/28 03:09:19;;;;;;;19.55;13.60;;;;;;;11.54;83.12;100520.24;2104589;83;21022;-77
2021/09/28 03:12:20;;;;;;;22.17;13.90;;;;;;;11.47;83.09;100527.22;2104017;83;21568;-79
2021/09/28 03:15:22;;;;;;;18.25;13.35;;;;;;;11.45;83.25;100530.03;2112804;83;20994;-78
2021/09/28 03:18:23;;;;;;;17.85;13.62;;;;;;;11.42;83.22;100535.67;2106771;83;21021;-77
2021/09/28 03:21:25;;;;;;;19.23;13.68;;;;;;;11.39;83.16;100536.82;2105595;83;21003;-78
2021/09/28 03:24:26;;;;;;;17.82;13.65;;;;;;;11.39;83.04;100547.95;2099448;83;21725;-78
2021/09/28 03:27:28;;;;;;;96.08;11.88;;;;;;;11.32;82.79;100541.13;2108428;83;21326;-79
2021/09/28 03:30:29;;;;;;;18.52;12.90;;;;;;;11.22;82.89;100543.91;2107626;83;20986;-77
2021/09/28 03:33:31;;;;;;;16.93;12.45;;;;;;;11.14;83.14;100550.52;2108335;83;21168;-78
2021/09/28 03:36:32;;;;;;;19.05;12.37;;;;;;;11.13;83.30;100552.84;2105005;83;20984;-78
2021/09/28 03:39:34;;;;;;;17.73;11.88;;;;;;;11.14;83.37;100557.15;2110002;83;21498;-79
2021/09/28 03:42:36;;;;;;;21.95;15.90;;;;;;;11.13;83.30;100549.36;2104191;83;21140;-78
2021/09/28 03:45:38;;;;;;;23.80;16.00;;;;;;;11.15;83.52;100555.32;2101464;83;21089;-78
2021/09/28 03:48:40;;;;;;;20.92;15.15;;;;;;;11.14;83.18;100558.48;2108146;83;20943;-78
2021/09/28 03:51:41;;;;;;;22.35;15.25;;;;;;;11.14;83.18;100558.48;2106551;83;21026;-78
2021/09/28 03:54:43;;;;;;;28.60;17.87;;;;;;;11.14;83.40;100563.79;2104655;83;21085;-78
2021/09/28 03:57:44;;;;;;;23.75;17.65;;;;;;;11.13;83.59;100562.14;2099541;83;21065;-78
2021/09/28 04:00:46;;;;;;;24.67;16.05;;;;;;;11.09;83.70;100551.98;2100379;83;20974;-77
2021/09/28 04:03:47;;;;;;;22.73;15.32;;;;;;;11.07;84.19;100564.61;2104682;83;21603;-79
2021/09/28 04:06:49;;;;;;;23.52;14.45;;;;;;;11.07;84.19;100564.61;2105455;83;20987;-78
2021/09/28 04:09:51;;;;;;;22.07;16.67;;;;;;;11.16;84.26;100565.80;2106360;83;21025;-78
2021/09/28 04:12:52;;;;;;;24.63;16.35;;;;;;;11.16;84.26;100565.80;2104534;83;21002;-77
2021/09/28 04:15:56;;;;;;;27.00;17.52;;;;;;;11.18;84.41;100564.33;2102946;83;21030;-79
2021/09/28 04:18:59;;;;;;;25.25;17.55;;;;;;;11.29;84.61;100575.13;2100108;83;21790;-78
2021/09/28 04:22:02;;;;;;;26.93;17.95;;;;;;;11.25;84.64;100551.22;2106968;83;21570;-77
2021/09/28 04:25:06;;;;;;;26.40;17.25;;;;;;;11.21;84.79;100542.75;2099932;83;21030;-78
2021/09/28 04:28:09;;;;;;;24.55;16.75;;;;;;;11.24;85.09;100549.57;2102227;83;21055;-77
2021/09/28 04:31:14;;;;;;;30.12;19.10;;;;;;;11.36;85.22;100570.86;2100751;83;21018;-78
2021/09/28 04:34:19;;;;;;;25.45;18.02;;;;;;;11.32;85.19;100566.84;2099049;83;21033;-77
2021/09/28 04:37:21;;;;;;;29.52;17.73;;;;;;;11.37;85.26;100577.83;2101354;83;21055;-78
2021/09/28 04:40:26;;;;;;;27.20;17.55;;;;;;;11.25;85.38;100554.70;2106751;83;21084;-78
2021/09/28 04:43:27;;;;;;;28.30;18.12;;;;;;;11.40;85.33;100578.36;2102328;83;21082;-77
2021/09/28 04:46:29;;;;;;;35.10;18.57;;;;;;;11.39;85.49;100575.34;2086106;84;20997;-79
2021/09/28 04:49:31;;;;;;;28.60;17.80;;;;;;;11.40;85.55;100580.16;2087073;83;20999;-78
2021/09/28 04:52:38;;;;;;;27.75;18.15;;;;;;;11.41;85.67;100584.50;2086751;84;21008;-77
2021/09/28 04:55:50;;;;;;;30.77;16.80;;;;;;;11.43;85.68;100587.33;2084969;84;21499;-78
2021/09/28 04:58:45;;;;;;;24.52;17.07;;;;;;;11.36;85.89;100562.89;2081123;84;21742;-77
2021/09/28 05:01:46;;;;;;;27.70;17.32;;;;;;;11.36;85.89;100562.89;2088132;84;21068;-76
2021/09/28 05:04:50;;;;;;;27.00;16.37;;;;;;;11.54;85.61;100595.48;2082124;84;21041;-79
2021/09/28 05:07:51;;;;;;;29.07;17.02;;;;;;;11.54;85.61;100595.48;2089427;84;21019;-79
2021/09/28 05:10:55;;;;;;;29.30;17.50;;;;;;;11.60;85.71;100590.02;2077288;84;21498;-77
2021/09/28 05:13:58;;;;;;;24.80;17.40;;;;;;;11.63;85.61;100606.50;2083933;84;21473;-77
2021/09/28 05:17:07;;;;;;;25.55;16.40;;;;;;;11.64;85.59;100606.82;2078567;84;21047;-78
2021/09/28 05:20:10;;;;;;;23.60;16.05;;;;;;;11.64;85.54;100607.33;2082323;84;21608;-81
2021/09/28 05:23:12;;;;;;;29.57;16.95;;;;;;;11.65;85.59;100609.80;2070532;84;21028;-78
2021/09/28 05:26:15;;;;;;;22.67;15.00;;;;;;;11.66;85.59;100598.70;2087837;84;21057;-78
2021/09/28 05:29:16;;;;;;;27.22;16.15;;;;;;;11.66;85.58;100603.52;2092363;84;21070;-79
2021/09/28 05:32:20;;;;;;;30.85;17.05;;;;;;;11.71;85.71;100606.16;2067965;84;20991;-78
2021/09/28 05:35:21;;;;;;;26.17;16.02;;;;;;;11.73;85.75;100602.86;2080348;84;20995;-79
2021/09/28 05:38:24;;;;;;;27.05;16.52;;;;;;;11.75;85.78;100614.17;2086058;84;21039;-80
2021/09/28 05:41:26;;;;;;;32.60;16.87;;;;;;;11.80;85.85;100618.01;2083883;84;20995;-78
2021/09/28 05:44:27;;;;;;;27.15;16.27;;;;;;;11.86;85.90;100617.89;2098311;83;21045;-79
2021/09/28 05:47:29;;;;;;;28.95;14.87;;;;;;;11.89;85.96;100616.22;2104777;83;21014;-78
2021/09/28 05:50:31;;;;;;;23.73;14.20;;;;;;;11.92;85.91;100614.56;2107350;83;21048;-78
2021/09/28 05:53:37;;;;;;;23.38;14.40;;;;;;;11.94;85.89;100617.05;2111617;83;21111;-78
2021/09/28 05:56:39;;;;;;;24.95;14.50;;;;;;;11.97;85.93;100621.56;2104648;83;20999;-78
2021/09/28 05:59:41;;;;;;;23.57;14.63;;;;;;;12.04;86.01;100622.55;2111991;83;21083;-79
2021/09/28 06:02:43;;;;;;;27.40;14.75;;;;;;;12.07;85.91;100614.25;2110117;83;21018;-78
2021/09/28 06:05:45;;;;;;;25.77;14.38;;;;;;;12.08;85.96;100615.93;2111744;83;21104;-79
2021/09/28 06:08:47;;;;;;;27.22;14.93;;;;;;;12.10;85.98;100617.91;2108769;83;21013;-81
2021/09/28 06:11:51;;;;;;;25.37;13.03;;;;;;;12.14;85.93;100621.59;2111570;83;21058;-80
2021/09/28 06:14:59;;;;;;;26.73;14.98;;;;;;;12.17;86.01;100622.59;2081016;83;21092;-80
2021/09/28 06:18:01;;;;;;;20.37;12.70;;;;;;;12.18;85.90;100623.73;2113002;83;20984;-81
2021/09/28 06:21:07;;;;;;;27.15;13.85;;;;;;;12.20;85.82;100631.06;2107125;83;21030;-77
2021/09/28 06:24:09;;;;;;;24.52;12.63;;;;;;;12.24;85.96;100632.39;2114356;83;21123;-77
2021/09/28 06:27:10;;;;;;;22.98;12.45;;;;;;;12.27;85.74;100639.20;2111180;83;21543;-76
2021/09/28 06:30:14;;;;;;;19.95;12.98;;;;;;;12.32;85.71;100643.04;2108518;83;21043;-78
2021/09/28 06:33:15;;;;;;;21.45;11.93;;;;;;;12.33;85.62;100655.84;2108490;83;21019;-77
2021/09/28 06:36:17;;;;;;;19.30;12.45;;;;;;;12.37;85.66;100662.52;2114064;83;21069;-77
2021/09/28 06:39:19;;;;;;;23.32;12.20;;;;;;;12.37;85.51;100658.52;2113665;83;21033;-77
2021/09/28 06:42:21;;;;;;;18.55;12.03;;;;;;;12.40;85.56;100654.20;2112687;83;20996;-76
2021/09/28 06:45:26;;;;;;;21.85;12.18;;;;;;;12.44;85.47;100656.84;2089168;83;21071;-77
2021/09/28 06:48:27;;;;;;;21.80;11.65;;;;;;;12.46;85.45;100651.38;2092026;84;21030;-75
2021/09/28 06:51:32;;;;;;;22.75;12.28;;;;;;;12.52;85.48;100656.02;2084154;84;21615;-78
2021/09/28 06:54:33;;;;;;;24.90;12.78;;;;;;;12.58;85.42;100654.53;2083651;84;20980;-75
2021/09/28 06:57:39;;;;;;;19.82;11.65;;;;;;;12.64;85.57;100661.84;2087989;83;21030;-76
2021/09/28 07:00:40;;;;;;;20.92;12.75;;;;;;;12.69;85.39;100658.19;2081306;84;21546;-75
2021/09/28 07:03:42;;;;;;;26.42;13.43;;;;;;;12.73;85.31;100667.52;2083521;83;21853;-77
2021/09/28 07:06:46;;;;;;;22.65;12.20;;;;;;;12.77;85.29;100670.16;2085685;84;20998;-74
2021/09/28 07:09:48;;;;;;;23.55;11.97;;;;;;;12.79;85.12;100674.33;2064196;84;21320;-76
2021/09/28 07:12:50;;;;;;;23.15;12.25;;;;;;;12.84;85.13;100686.30;2088474;83;21034;-75
2021/09/28 07:15:52;;;;;;;19.90;12.80;;;;;;;12.89;85.26;100687.45;2081661;84;21035;-77
2021/09/28 07:18:57;;;;;;;19.32;12.55;;;;;;;12.91;84.92;100692.62;2084779;83;21475;-77
2021/09/28 07:22:00;;;;;;;20.10;12.23;;;;;;;12.85;84.73;100684.81;2085256;84;21498;-77
2021/09/28 07:25:05;;;;;;;18.60;12.23;;;;;;;12.79;84.70;100686.81;2085396;83;21038;-76
2021/09/28 07:28:08;;;;;;;24.37;12.95;;;;;;;12.76;84.77;100688.48;2088007;84;21034;-78
2021/09/28 07:31:11;;;;;;;18.42;11.88;;;;;;;12.74;84.80;100693.96;2045393;84;21321;-78
2021/09/28 07:34:13;;;;;;;22.42;11.88;;;;;;;12.75;84.89;100685.47;2079536;83;21462;-77
2021/09/28 07:37:24;;;;;;;23.67;12.45;;;;;;;12.76;84.95;100677.83;2070331;84;21079;-77
2021/09/28 07:40:20;;;;;;;22.73;12.63;;;;;;;12.77;84.92;100682.15;2080475;83;21545;-79
2021/09/28 07:43:22;;;;;;;19.95;13.45;;;;;;;12.82;85.17;100685.14;2086904;84;21552;-78
2021/09/28 07:46:24;;;;;;;23.10;13.03;;;;;;;12.88;85.23;100691.13;2089451;83;21134;-79
2021/09/28 07:49:26;;;;;;;22.48;12.28;;;;;;;12.94;85.10;100693.11;2085196;84;21576;-78
2021/09/28 07:52:31;;;;;;;20.97;13.68;;;;;;;13.06;85.28;100703.42;2081939;84;21056;-78
2021/09/28 07:55:36;;;;;;;23.00;13.25;;;;;;;13.16;84.99;100706.75;2081497;84;21101;-77
2021/09/28 07:58:38;;;;;;;22.52;12.47;;;;;;;13.24;84.89;100704.07;2089482;83;21026;-77
2021/09/28 08:01:40;;;;;;;25.48;12.45;;;;;;;13.36;84.85;100706.73;2088243;84;21007;-78
2021/09/28 08:04:41;;;;;;;24.10;12.55;;;;;;;13.45;84.57;100716.87;2083619;84;21046;-77
2021/09/28 08:07:43;;;;;;;21.40;12.45;;;;;;;13.52;84.41;100721.86;2090452;84;20994;-78
2021/09/28 08:10:44;;;;;;;22.02;13.38;;;;;;;13.62;84.43;100728.31;2081841;84;21458;-77
2021/09/28 08:13:46;;;;;;;20.40;12.93;;;;;;;13.73;84.24;100732.45;2086749;84;20999;-77
2021/09/28 08:16:48;;;;;;;19.90;12.68;;;;;;;13.83;84.10;100732.58;2089422;84;20959;-77
2021/09/28 08:19:52;;;;;;;20.15;12.35;;;;;;;13.99;84.09;100732.99;2084219;84;21074;-77
2021/09/28 08:22:56;;;;;;;22.87;13.00;;;;;;;14.13;83.81;100732.77;2084390;84;20999;-79
2021/09/28 08:29:09;;;;;;;18.73;11.57;;;;;;;14.38;83.19;100734.79;2082104;84;21016;-78
2021/09/28 08:32:10;;;;;;;;;;;;;;;14.51;83.08;100742.23;2087090;84;21590;-78
2021/09/28 08:35:12;;;;;;;22.62;12.45;;;;;;;14.68;82.80;100740.31;2083440;84;20418;-75
2021/09/28 08:38:14;;;;;;;19.70;12.75;;;;;;;14.79;82.67;100737.22;2082034;84;20996;-77
2021/09/28 08:41:18;;;;;;;20.88;12.45;;;;;;;14.95;82.70;100743.77;2085563;84;21096;-78
2021/09/28 08:44:21;;;;;;;21.23;12.93;;;;;;;15.00;82.11;100746.70;2090320;84;21521;-77
2021/09/28 08:47:45;;;;;;;23.27;12.35;;;;;;;15.17;82.24;100743.38;2090395;84;21279;-76
2021/09/28 08:50:52;;;;;;;22.42;13.05;;;;;;;15.39;82.14;100743.00;2092461;83;22542;-77
2021/09/28 08:53:57;;;;;;;22.37;12.60;;;;;;;15.72;82.08;100736.51;2081995;84;21001;-77
2021/09/28 08:57:01;;;;;;;23.65;13.10;;;;;;;16.07;81.22;100733.03;2084028;84;21031;-77
2021/09/28 09:00:19;;;;;;;22.95;12.28;;;;;;;16.39;81.02;100729.59;2074100;84;21019;-77
2021/09/28 09:03:34;;;;;;;22.93;13.55;;;;;;;16.65;80.20;100730.88;2078573;84;21019;-77
2021/09/28 09:06:36;;;;;;;23.12;13.98;;;;;;;16.78;78.93;100736.38;2085722;84;21011;-77
2021/09/28 09:09:48;;;;;;;25.70;13.83;;;;;;;16.86;79.28;100733.56;2083426;84;21577;-77
2021/09/28 09:12:50;;;;;;;22.45;13.85;;;;;;;17.09;79.41;100733.85;2082961;83;21058;-78
2021/09/28 09:15:57;;;;;;;30.80;13.25;;;;;;;17.43;78.95;100731.75;2084725;84;20971;-78
2021/09/28 09:19:17;;;;;;;26.40;14.80;;;;;;;17.69;78.62;100737.77;2081279;84;21695;-76
2021/09/28 09:22:23;;;;;;;22.02;14.63;;;;;;;17.89;77.97;100719.94;2078866;84;21583;-76
2021/09/28 09:25:28;;;;;;;22.07;13.95;;;;;;;18.33;77.73;100728.56;2087897;84;21074;-76
2021/09/28 09:28:33;;;;;;;25.62;15.20;;;;;;;18.52;76.83;100726.41;2087442;83;21024;-78
2021/09/28 09:31:35;;;;;;;29.15;13.08;;;;;;;18.59;76.18;100726.44;2082929;84;21034;-77
2021/09/28 09:34:37;;;;;;;27.70;15.43;;;;;;;18.78;76.23;100712.23;2087596;84;21153;-77
2021/09/28 09:37:38;;;;;;;24.05;14.73;;;;;;;19.15;75.51;100711.28;2088056;84;21418;-76
2021/09/28 09:40:44;;;;;;;25.00;14.70;;;;;;;19.34;74.61;100718.17;2080817;84;21567;-76
2021/09/28 09:43:48;;;;;;;28.40;16.85;;;;;;;19.49;73.80;100713.40;2085395;84;21423;-76
2021/09/28 09:46:51;;;;;;;25.80;17.55;;;;;;;19.80;72.23;100707.32;2063784;84;21016;-77
2021/09/28 09:50:13;;;;;;;33.88;19.90;;;;;;;19.77;72.97;100705.58;2062093;84;21011;-77
2021/09/28 09:53:15;;;;;;;27.07;17.65;;;;;;;19.95;72.17;100712.95;2055543;84;21025;-77
2021/09/28 09:56:18;;;;;;;26.42;17.45;;;;;;;20.12;70.64;100706.84;2059568;84;21020;-76
2021/09/28 09:59:24;;;;;;;29.30;16.52;;;;;;;20.27;71.15;100717.36;2066390;84;20954;-78
2021/09/28 10:02:26;;;;;;;25.32;15.40;;;;;;;20.42;71.00;100711.67;2061678;84;21562;-78
2021/09/28 10:05:28;;;;;;;27.87;17.35;;;;;;;20.66;71.26;100714.64;2056581;84;21082;-77
2021/09/28 10:08:31;;;;;;;26.17;16.00;;;;;;;20.95;69.92;100718.05;2059110;84;20989;-77
2021/09/28 10:11:36;;;;;;;26.20;15.50;;;;;;;21.05;69.78;100718.36;2054132;84;21543;-79
2021/09/28 10:14:44;;;;;;;25.80;15.43;;;;;;;20.95;68.57;100721.27;2056316;84;21547;-77
2021/09/28 10:17:48;;;;;;;29.02;15.10;;;;;;;20.90;67.57;100729.20;2057540;84;21029;-78
2021/09/28 10:20:51;;;;;;;25.00;16.00;;;;;;;20.94;67.33;100732.56;2061062;84;21026;-78
2021/09/28 10:24:24;;;;;;;21.48;14.98;;;;;;;21.10;66.47;100733.89;2070980;84;21038;-76
2021/09/28 10:27:28;;;;;;;27.25;15.30;;;;;;;21.22;66.53;100736.69;2057288;84;21027;-76
2021/09/28 10:30:38;;;;;;;27.60;14.00;;;;;;;21.16;66.11;100730.30;2060448;84;21647;-75
2021/09/28 10:33:45;;;;;;;26.80;14.10;;;;;;;21.24;66.08;100731.38;2056491;84;21008;-77
2021/09/28 10:36:52;;;;;;;21.62;13.78;;;;;;;21.30;66.21;100731.01;2057418;84;21048;-78
2021/09/28 10:39:54;;;;;;;21.07;13.30;;;;;;;21.18;65.82;100740.89;2058868;84;20985;-78
2021/09/28 10:43:03;;;;;;;24.12;13.68;;;;;;;21.18;65.91;100742.23;2060022;84;21515;-76
2021/09/28 10:46:05;;;;;;;20.95;12.37;;;;;;;21.09;65.94;100742.20;2053394;84;21030;-77
2021/09/28 10:49:28;;;;;;;26.45;16.05;;;;;;;21.09;65.87;100737.65;2056800;84;21009;-77
2021/09/28 10:52:35;;;;;;;20.23;12.70;;;;;;;21.15;64.48;100731.36;2057583;84;20978;-79
2021/09/28 10:55:59;;;;;;;21.17;12.03;;;;;;;21.32;64.89;100726.22;2059343;84;21089;-78
2021/09/28 10:59:04;;;;;;;23.30;13.18;;;;;;;21.31;63.85;100727.25;2056627;84;22214;-76
2021/09/28 11:02:08;;;;;;;19.80;12.35;;;;;;;21.19;64.27;100723.11;2060885;84;21034;-76
2021/09/28 11:05:37;;;;;;;18.67;11.97;;;;;;;21.02;63.53;100728.24;2066197;84;21492;-74
2021/09/28 11:08:39;;;;;;;19.17;11.18;;;;;;;21.05;63.92;100723.75;2054893;84;20966;-75
2021/09/28 11:11:41;;;;;;;21.42;12.00;;;;;;;21.19;63.70;100720.41;2059432;84;20993;-77
2021/09/28 11:14:43;;;;;;;17.05;9.95;;;;;;;21.31;63.15;100719.69;2053330;84;21512;-77
2021/09/28 11:17:44;;;;;;;17.80;10.50;;;;;;;21.38;63.04;100720.48;2060988;84;20990;-75
2021/09/28 11:20:46;;;;;;;19.20;11.00;;;;;;;21.40;62.55;100721.91;2061397;84;21026;-75
2021/09/28 11:23:54;;;;;;;19.98;10.28;;;;;;;21.40;62.23;100720.56;2055133;84;20995;-76
2021/09/28 11:27:06;;;;;;;19.12;10.90;;;;;;;21.37;62.21;100725.06;2062222;84;21041;-76
2021/09/28 11:30:14;;;;;;;15.30;10.28;;;;;;;21.35;62.35;100723.07;2058608;84;20973;-78
2021/09/28 11:33:16;;;;;;;15.45;9.90;;;;;;;21.31;61.92;100724.55;2060754;84;20955;-76
2021/09/28 11:36:18;;;;;;;18.73;10.13;;;;;;;21.05;61.32;100717.01;2054064;84;22136;-78
2021/09/28 11:39:19;;;;;;;16.23;10.08;;;;;;;20.85;61.59;100714.19;2054809;84;21077;-77
2021/09/28 11:42:24;;;;;;;13.72;9.45;;;;;;;20.77;62.42;100705.84;2062789;84;20985;-77
2021/09/28 11:45:28;;;;;;;15.68;8.98;;;;;;;20.79;62.19;100707.80;2059326;84;21018;-79
2021/09/28 11:48:47;;;;;;;16.10;9.40;;;;;;;20.76;62.23;100709.06;2080800;84;21105;-76
2021/09/28 11:51:48;;;;;;;12.78;8.68;;;;;;;20.75;61.46;100708.78;2080629;84;21045;-75
2021/09/28 11:54:52;;;;;;;18.25;9.45;;;;;;;20.65;62.37;100707.61;2078381;84;20974;-76
2021/09/28 11:57:54;;;;;;;15.15;9.85;;;;;;;20.68;61.01;100707.16;2077866;84;21045;-78
2021/09/28 12:00:57;;;;;;;13.60;9.33;;;;;;;20.62;61.36;100707.52;2081954;84;21539;-76
2021/09/28 12:04:20;;;;;;;12.63;8.60;;;;;;;20.60;61.75;100717.69;2083958;84;21070;-77
2021/09/28 12:10:39;;;;;;;15.45;8.95;;;;;;;20.33;60.79;100719.19;2083713;83;21539;-77
2021/09/28 12:13:48;;;;;;;16.60;10.05;;;;;;;20.12;60.95;100716.28;2080008;84;20969;-77
2021/09/28 12:16:50;;;;;;;16.27;9.85;;;;;;;20.02;61.97;100715.94;2082432;84;20957;-77
2021/09/28 12:19:57;;;;;;;11.43;8.48;;;;;;;20.05;62.00;100716.03;2082784;84;21303;-77
2021/09/28 12:23:02;;;;;;;14.60;8.95;;;;;;;20.09;61.83;100709.98;2079423;84;21085;-77
2021/09/28 12:26:05;;;;;;;14.47;9.55;;;;;;;20.17;61.88;100704.05;2078971;84;21545;-77
2021/09/28 12:29:20;;;;;;;15.48;8.65;;;;;;;20.21;61.49;100702.03;2080189;84;21002;-76
2021/09/28 12:32:28;;;;;;;15.80;9.03;;;;;;;20.27;61.14;100704.39;2082397;84;21013;-78
2021/09/28 12:35:35;;;;;;;16.27;8.53;;;;;;;20.18;61.43;100699.77;2078697;84;21041;-76
2021/09/28 12:38:38;;;;;;;12.78;8.65;;;;;;;20.16;61.49;100695.14;2078463;84;21009;-76
2021/09/28 12:41:59;;;;;;;12.50;8.75;;;;;;;20.10;61.69;100701.37;2081548;84;20977;-77
2021/09/28 12:45:14;;;;;;;;;;;;;;;20.04;61.34;100693.63;2089766;83;21005;-77
2021/09/28 12:48:18;;;;;;;13.45;8.25;;;;;;;19.93;61.40;100700.54;2110061;83;20977;-76
2021/09/28 12:51:20;;;;;;;13.50;8.43;;;;;;;19.99;61.46;100702.90;2111339;83;21129;-76
2021/09/28 12:54:23;;;;;;;15.68;8.23;;;;;;;20.03;61.28;100699.25;2105459;83;21462;-77
2021/09/28 12:57:24;;;;;;;10.48;8.45;;;;;;;19.96;61.00;100697.91;2120014;83;21044;-74
2021/09/28 13:00:26;;;;;;;15.45;9.53;;;;;;;19.93;60.91;100697.00;2109909;83;20945;-77
2021/09/28 13:03:30;;;;;;;14.53;8.55;;;;;;;19.95;59.44;100696.27;2108466;83;20982;-77
2021/09/28 13:06:32;;;;;;;14.95;8.45;;;;;;;19.89;60.53;100703.87;2115149;83;21460;-77
2021/09/28 13:09:34;;;;;;;13.28;8.25;;;;;;;19.84;60.84;100699.63;2108901;83;21038;-77
2021/09/28 13:12:36;;;;;;;15.45;8.85;;;;;;;19.83;60.58;100697.99;2111603;83;20966;-76
2021/09/28 13:15:37;;;;;;;11.93;7.78;;;;;;;19.70;60.28;100697.51;2113289;83;21005;-78
2021/09/28 13:18:39;;;;;;;12.82;8.68;;;;;;;19.56;60.36;100700.73;2108946;83;21552;-77
2021/09/28 13:21:40;;;;;;;15.40;9.40;;;;;;;19.48;61.06;100700.47;2111247;83;21449;-77
2021/09/28 13:24:42;;;;;;;13.43;8.63;;;;;;;19.40;61.00;100699.84;2108486;83;20994;-78
2021/09/28 13:27:43;;;;;;;21.00;9.10;;;;;;;19.33;60.97;100701.20;2115058;83;20990;-78
2021/09/28 13:30:45;;;;;;;14.87;9.00;;;;;;;19.21;61.07;100705.06;2119394;83;21562;-77
2021/09/28 13:33:47;;;;;;;16.93;8.85;;;;;;;19.17;61.24;100701.64;2112753;83;21899;-76
2021/09/28 13:36:48;;;;;;;13.90;8.63;;;;;;;19.18;61.11;100704.14;2104434;83;21013;-76
2021/09/28 13:39:50;;;;;;;17.15;8.28;;;;;;;19.21;61.11;100702.38;2107811;83;20983;-77
2021/09/28 13:42:52;;;;;;;11.68;7.62;;;;;;;19.33;61.78;100704.42;2107969;83;21073;-78
2021/09/28 13:45:55;;;;;;;11.45;7.80;;;;;;;19.42;61.63;100708.53;2108848;83;21069;-76
2021/09/28 13:48:57;;;;;;;15.03;8.50;;;;;;;19.45;61.45;100702.73;2084020;84;21046;-77
2021/09/28 13:51:59;;;;;;;12.50;8.70;;;;;;;19.48;61.61;100709.03;2082961;84;21023;-80
2021/09/28 13:55:00;;;;;;;11.45;7.85;;;;;;;19.51;61.70;100710.48;2081769;84;21681;-76
2021/09/28 13:58:02;;;;;;;14.50;8.10;;;;;;;19.48;61.34;100706.34;2084102;84;20995;-78
2021/09/28 14:01:04;;;;;;;16.37;8.63;;;;;;;19.46;61.59;100702.53;2082185;84;20960;-78
2021/09/28 14:04:07;;;;;;;15.75;8.38;;;;;;;19.45;61.64;100705.42;2084405;84;21015;-78